Time;durP1;ratioP1;P1;durP2;ratioP2;P2;SDS_P1;SDS_P2;PMS_P1;PMS_P2;Temp;Humidity;BMP_temperature;BMP_pressure;BME280_temperature;BME280_humidity;BME280_pressure;Samples;Min_cycle;Max_cycle;Signal;HPM_P1;HPM_P2
2024/04/09 00:01:57;;;;;;;9.70;6.30;;;12.70;99.90;;;;;;5425016;26;20234;-59
2024/04/09 00:04:27;;;;;;;9.80;7.00;;;12.70;99.90;;;;;;5421940;26;20228;-58
2024/04/09 00:06:52;;;;;;;8.93;6.80;;;12.70;99.90;;;;;;5438320;26;20817;-58
2024/04/09 00:09:23;;;;;;;8.47;6.90;;;12.70;99.90;;;;;;5437872;26;20240;-56
2024/04/09 00:11:49;;;;;;;8.67;5.90;;;12.80;99.90;;;;;;5396794;26;20306;-57
2024/04/09 00:14:18;;;;;;;9.50;6.40;;;12.80;99.90;;;;;;5437509;26;20231;-58
2024/04/09 00:16:47;;;;;;;10.73;7.20;;;12.80;99.90;;;;;;5428807;26;21059;-55
2024/04/09 00:19:17;;;;;;;8.53;6.90;;;12.80;99.90;;;;;;5426971;26;21107;-59
2024/04/09 00:21:44;;;;;;;9.53;6.73;;;12.80;99.90;;;;;;5451021;26;20277;-58
2024/04/09 00:24:15;;;;;;;7.83;6.37;;;12.80;99.90;;;;;;5461866;26;20231;-59
2024/04/09 00:26:41;;;;;;;15.50;7.77;;;12.80;99.90;;;;;;5424170;26;20258;-58
2024/04/09 00:29:10;;;;;;;11.53;7.63;;;12.80;99.90;;;;;;5453076;26;20340;-59
2024/04/09 00:31:36;;;;;;;10.97;7.33;;;12.80;99.90;;;;;;5444124;26;20240;-57
2024/04/09 00:34:07;;;;;;;11.03;8.33;;;12.90;99.90;;;;;;5443149;26;20270;-58
2024/04/09 00:36:33;;;;;;;12.33;7.83;;;12.90;99.90;;;;;;5454931;26;20278;-59
2024/04/09 00:39:03;;;;;;;12.30;7.70;;;12.90;99.90;;;;;;5449250;26;20287;-56
2024/04/09 00:41:29;;;;;;;9.00;7.27;;;12.90;99.90;;;;;;5457752;26;20288;-58
2024/04/09 00:43:57;;;;;;;10.17;7.40;;;12.90;99.90;;;;;;5407098;26;20920;-56
2024/04/09 00:46:23;;;;;;;12.87;7.47;;;12.90;99.90;;;;;;5447481;26;20274;-60
2024/04/09 00:48:54;;;;;;;11.00;8.13;;;13.00;99.90;;;;;;5442985;26;20248;-57
2024/04/09 00:51:23;;;;;;;10.57;7.30;;;13.00;99.90;;;;;;5447030;26;20232;-58
2024/04/09 00:53:53;;;;;;;10.97;8.37;;;13.00;99.90;;;;;;5446063;26;20338;-58
2024/04/09 00:56:19;;;;;;;12.03;8.00;;;13.00;99.90;;;;;;5441240;26;20258;-58
2024/04/09 00:58:49;;;;;;;10.20;7.63;;;13.00;99.90;;;;;;5398185;26;20247;-57
2024/04/09 01:01:16;;;;;;;15.20;8.03;;;13.00;99.90;;;;;;5434714;26;20235;-55
2024/04/09 01:03:48;;;;;;;12.67;8.30;;;12.90;99.90;;;;;;5432680;26;20251;-58
2024/04/09 01:06:14;;;;;;;11.40;7.57;;;12.90;99.90;;;;;;5436190;26;20227;-59
2024/04/09 01:08:45;;;;;;;8.30;7.50;;;12.90;99.90;;;;;;5442349;26;20243;-59
2024/04/09 01:11:11;;;;;;;12.37;7.00;;;12.90;99.90;;;;;;5422211;26;20228;-57
2024/04/09 01:13:42;;;;;;;13.00;7.73;;;12.80;99.90;;;;;;5392289;26;20278;-57
2024/04/09 01:16:10;;;;;;;9.90;7.40;;;12.80;99.90;;;;;;5437718;26;20239;-59
2024/04/09 01:18:38;;;;;;;11.40;7.77;;;12.80;99.90;;;;;;5440465;26;20269;-59
2024/04/09 01:21:05;;;;;;;11.43;7.47;;;12.80;99.90;;;;;;5441584;26;20231;-59
2024/04/09 01:23:36;;;;;;;9.60;7.27;;;12.80;99.90;;;;;;5459598;26;21207;-60
2024/04/09 01:26:02;;;;;;;12.30;8.40;;;12.80;99.90;;;;;;5448723;26;20240;-59
2024/04/09 01:28:30;;;;;;;8.50;7.00;;;12.80;99.90;;;;;;5404828;26;20286;-59
2024/04/09 01:30:57;;;;;;;13.90;8.43;;;12.80;99.90;;;;;;5458851;26;20231;-57
2024/04/09 01:33:25;;;;;;;13.33;8.00;;;12.80;99.90;;;;;;5450568;26;20333;-55
2024/04/09 01:35:51;;;;;;;9.40;8.23;;;12.80;99.90;;;;;;5444727;26;20269;-58
2024/04/09 01:38:19;;;;;;;13.27;8.33;;;12.80;99.90;;;;;;5448522;26;20232;-59
2024/04/09 01:40:49;;;;;;;10.17;7.97;;;12.80;99.90;;;;;;5440785;26;21169;-60
2024/04/09 01:43:18;;;;;;;9.73;7.70;;;12.80;99.90;;;;;;5427494;26;20278;-58
2024/04/09 01:45:44;;;;;;;9.03;7.93;;;12.80;99.90;;;;;;5427517;26;20344;-59
2024/04/09 01:48:12;;;;;;;12.03;7.70;;;12.80;99.90;;;;;;5447085;26;20247;-57
2024/04/09 01:50:38;;;;;;;12.57;7.87;;;12.70;99.90;;;;;;5434668;26;20239;-59
2024/04/09 01:53:07;;;;;;;14.20;7.73;;;12.70;99.90;;;;;;5435018;26;20806;-56
2024/04/09 01:55:33;;;;;;;11.50;8.17;;;12.70;99.90;;;;;;5429450;26;21048;-60
2024/04/09 01:58:05;;;;;;;13.97;8.80;;;12.70;99.90;;;;;;5444332;26;20274;-60
2024/04/09 02:00:31;;;;;;;11.30;8.73;;;12.70;99.90;;;;;;5397893;26;20244;-61
2024/04/09 02:03:01;;;;;;;10.17;8.43;;;12.70;99.90;;;;;;5443202;26;20234;-59
2024/04/09 02:05:27;;;;;;;12.53;8.23;;;12.70;99.90;;;;;;5432929;26;20332;-56
2024/04/09 02:07:55;;;;;;;13.53;8.47;;;12.80;99.90;;;;;;5426887;26;20658;-58
2024/04/09 02:10:21;;;;;;;13.30;8.83;;;12.80;99.90;;;;;;5448265;26;20231;-57
2024/04/09 02:12:50;;;;;;;14.43;8.97;;;12.70;99.90;;;;;;5462028;26;20331;-58
2024/04/09 02:15:19;;;;;;;9.80;7.43;;;12.80;99.90;;;;;;5415570;26;20289;-57
2024/04/09 02:17:47;;;;;;;16.50;7.83;;;12.80;99.90;;;;;;5454513;26;20324;-59
2024/04/09 02:20:17;;;;;;;10.30;7.67;;;12.90;99.90;;;;;;5439357;26;20335;-57
2024/04/09 02:22:46;;;;;;;13.23;7.83;;;12.90;99.90;;;;;;5445106;26;20270;-59
2024/04/09 02:25:11;;;;;;;11.43;7.80;;;13.00;99.90;;;;;;5457853;26;20236;-57
2024/04/09 02:27:40;;;;;;;12.80;8.03;;;13.10;99.90;;;;;;5459562;26;20234;-59
2024/04/09 02:30:09;;;;;;;13.33;7.67;;;13.10;99.90;;;;;;5414151;26;20248;-57
2024/04/09 02:32:40;;;;;;;10.37;7.60;;;13.20;99.90;;;;;;5442277;26;20227;-59
2024/04/09 02:35:10;;;;;;;12.20;7.70;;;13.20;99.90;;;;;;5439120;26;20234;-59
2024/04/09 02:37:38;;;;;;;10.27;7.13;;;13.20;99.90;;;;;;5435288;26;20332;-59
2024/04/09 02:40:06;;;;;;;8.13;6.83;;;13.20;99.90;;;;;;5450917;26;20725;-59
2024/04/09 02:42:35;;;;;;;10.30;7.17;;;13.20;99.90;;;;;;5450494;26;20273;-60
2024/04/09 02:45:01;;;;;;;10.13;7.10;;;13.20;99.90;;;;;;5450902;26;20582;-60
2024/04/09 02:47:29;;;;;;;11.10;7.27;;;13.20;99.90;;;;;;5401814;26;20283;-58
2024/04/09 02:49:58;;;;;;;11.20;6.63;;;13.20;99.90;;;;;;5441244;26;20269;-58
2024/04/09 02:52:26;;;;;;;7.43;6.20;;;13.20;99.90;;;;;;5425409;26;20730;-57
2024/04/09 02:54:52;;;;;;;9.47;6.57;;;13.10;99.90;;;;;;5451684;26;20266;-59
2024/04/09 02:57:20;;;;;;;11.87;6.90;;;13.10;99.90;;;;;;5438791;26;20235;-59
2024/04/09 02:59:46;;;;;;;10.00;6.87;;;13.00;99.90;;;;;;5442558;26;20228;-59
2024/04/09 03:02:15;;;;;;;11.40;6.00;;;13.00;99.90;;;;;;5399308;26;20780;-58
2024/04/09 03:04:41;;;;;;;10.73;6.47;;;13.00;99.90;;;;;;5437199;26;21083;-60
2024/04/09 03:07:12;;;;;;;11.13;7.17;;;13.00;99.90;;;;;;5458743;26;20298;-59
2024/04/09 03:09:38;;;;;;;12.93;7.43;;;13.00;99.90;;;;;;5440166;26;20246;-60
2024/04/09 03:12:08;;;;;;;16.97;7.40;;;13.00;99.90;;;;;;5455636;26;20336;-59
2024/04/09 03:14:33;;;;;;;9.20;6.87;;;13.00;99.90;;;;;;5454177;26;21145;-59
2024/04/09 03:17:02;;;;;;;8.03;6.90;;;13.10;99.90;;;;;;5397068;26;20234;-58
2024/04/09 03:19:28;;;;;;;8.57;5.90;;;13.10;99.90;;;;;;5415356;26;20461;-59
2024/04/09 03:21:56;;;;;;;13.03;6.20;;;13.10;99.90;;;;;;5455793;26;20741;-60
2024/04/09 03:24:24;;;;;;;15.50;7.67;;;13.00;99.90;;;;;;5438049;26;20231;-56
2024/04/09 03:26:53;;;;;;;8.30;6.90;;;12.90;99.90;;;;;;5444891;26;20342;-60
2024/04/09 03:29:20;;;;;;;9.50;6.90;;;12.90;99.90;;;;;;5453130;26;20584;-58
2024/04/09 03:31:49;;;;;;;10.80;7.17;;;13.00;99.90;;;;;;5428649;26;20231;-58
2024/04/09 03:34:15;;;;;;;9.87;7.97;;;13.00;99.90;;;;;;5411146;26;20478;-60
2024/04/09 03:36:43;;;;;;;8.93;6.67;;;13.00;99.90;;;;;;5456771;26;20781;-60
2024/04/09 03:39:12;;;;;;;10.47;7.50;;;13.10;99.90;;;;;;5439193;26;20281;-57
2024/04/09 03:41:43;;;;;;;12.20;6.80;;;13.10;99.90;;;;;;5448848;26;20239;-58
2024/04/09 03:44:11;;;;;;;16.97;7.30;;;13.10;99.90;;;;;;5433419;26;20244;-56
2024/04/09 03:46:37;;;;;;;9.53;6.70;;;13.10;99.90;;;;;;5438795;26;21081;-57
2024/04/09 03:49:07;;;;;;;16.27;7.87;;;13.10;99.90;;;;;;5407634;26;20248;-58
2024/04/09 03:51:33;;;;;;;22.53;7.60;;;13.20;99.90;;;;;;5451722;26;20632;-57
2024/04/09 03:54:01;;;;;;;13.77;7.93;;;13.20;99.90;;;;;;5454825;26;20248;-57
2024/04/09 03:56:28;;;;;;;12.67;7.33;;;13.30;99.90;;;;;;5452321;26;20227;-59
2024/04/09 03:58:59;;;;;;;8.53;6.40;;;13.30;99.90;;;;;;5449321;26;20234;-58
2024/04/09 04:01:25;;;;;;;11.97;6.87;;;13.30;99.90;;;;;;5445834;26;20242;-58
2024/04/09 04:03:53;;;;;;;11.70;6.83;;;13.30;99.90;;;;;;5422667;26;20281;-58
2024/04/09 04:06:19;;;;;;;10.50;7.13;;;13.30;99.90;;;;;;5435545;26;20270;-60
2024/04/09 04:08:47;;;;;;;10.67;7.30;;;13.30;99.90;;;;;;5459602;26;20246;-59
2024/04/09 04:11:14;;;;;;;12.20;7.43;;;13.40;99.90;;;;;;5430661;26;20298;-58
2024/04/09 04:13:44;;;;;;;12.80;7.77;;;13.40;99.90;;;;;;5421068;26;20239;-55
2024/04/09 04:16:14;;;;;;;12.10;7.23;;;13.40;99.90;;;;;;5437297;26;20776;-57
2024/04/09 04:18:43;;;;;;;10.77;6.53;;;13.40;99.90;;;;;;5403048;26;20322;-59
2024/04/09 04:21:12;;;;;;;9.23;7.33;;;13.40;99.90;;;;;;5426672;26;20232;-60
2024/04/09 04:23:41;;;;;;;12.80;6.70;;;13.40;99.90;;;;;;5446788;26;20330;-59
2024/04/09 04:26:08;;;;;;;13.40;7.47;;;13.50;99.90;;;;;;5441745;26;20286;-58
2024/04/09 04:28:38;;;;;;;8.93;6.20;;;13.50;99.90;;;;;;5447967;26;20258;-57
2024/04/09 04:31:06;;;;;;;8.57;6.53;;;13.50;99.90;;;;;;5449993;26;20262;-57
2024/04/09 04:33:38;;;;;;;9.70;6.87;;;13.50;99.90;;;;;;5420643;26;20235;-56
2024/04/09 04:36:04;;;;;;;11.77;6.17;;;13.50;99.90;;;;;;5438164;26;20309;-57
2024/04/09 04:38:33;;;;;;;12.43;6.40;;;13.50;99.90;;;;;;5432922;26;21068;-57
2024/04/09 04:40:59;;;;;;;10.90;6.60;;;13.60;99.90;;;;;;5447799;26;20338;-59
2024/04/09 04:43:28;;;;;;;8.63;5.50;;;13.60;99.90;;;;;;5442670;26;20279;-56
2024/04/09 04:45:55;;;;;;;11.00;6.13;;;13.60;99.90;;;;;;5438508;26;20330;-57
2024/04/09 04:48:23;;;;;;;8.87;6.10;;;13.70;99.90;;;;;;5451835;26;20235;-57
2024/04/09 04:50:52;;;;;;;11.17;6.50;;;13.80;99.90;;;;;;5399480;26;20273;-59
2024/04/09 04:53:21;;;;;;;10.17;5.77;;;13.80;99.90;;;;;;5439287;26;20325;-57
2024/04/09 04:55:49;;;;;;;12.40;5.87;;;13.90;99.90;;;;;;5439439;26;20262;-57
2024/04/09 04:58:19;;;;;;;7.57;5.07;;;13.90;99.90;;;;;;5444658;26;20695;-57
2024/04/09 05:00:45;;;;;;;10.73;5.87;;;14.00;99.90;;;;;;5428147;26;20236;-59
2024/04/09 05:03:13;;;;;;;13.17;6.30;;;14.10;99.90;;;;;;5458493;26;20349;-59
2024/04/09 05:05:39;;;;;;;8.67;5.37;;;14.10;99.90;;;;;;5396009;26;20287;-57
2024/04/09 05:08:10;;;;;;;9.93;5.77;;;14.20;99.90;;;;;;5430066;26;20235;-58
2024/04/09 05:10:37;;;;;;;12.83;5.93;;;14.20;99.90;;;;;;5436374;26;20246;-56
2024/04/09 05:13:07;;;;;;;11.53;5.70;;;14.30;99.90;;;;;;5446138;26;20240;-58
2024/04/09 05:15:32;;;;;;;7.73;5.10;;;14.40;99.90;;;;;;5437139;26;20782;-55
2024/04/09 05:18:01;;;;;;;9.23;5.40;;;14.40;99.90;;;;;;5451078;26;20282;-57
2024/04/09 05:20:28;;;;;;;7.67;5.57;;;14.50;99.90;;;;;;5421303;26;20257;-55
2024/04/09 05:22:57;;;;;;;10.30;5.47;;;14.60;99.90;;;;;;5398255;26;21744;-57
2024/04/09 05:25:27;;;;;;;13.97;5.67;;;14.70;99.90;;;;;;5461591;26;20231;-57
2024/04/09 05:27:56;;;;;;;9.43;4.63;;;14.70;99.90;;;;;;5448325;26;20238;-59
2024/04/09 05:30:22;;;;;;;7.83;4.70;;;14.80;99.90;;;;;;5451751;26;20325;-57
2024/04/09 05:32:50;;;;;;;16.33;5.20;;;14.90;99.90;;;;;;5424842;26;20994;-60
2024/04/09 05:35:18;;;;;;;8.83;4.47;;;14.90;99.90;;;;;;5449722;26;20258;-58
2024/04/09 05:37:47;;;;;;;7.20;4.50;;;15.00;99.90;;;;;;5386410;26;20239;-59
2024/04/09 05:40:13;;;;;;;11.33;4.73;;;15.00;99.90;;;;;;5450488;26;20393;-59
2024/04/09 05:42:46;;;;;;;11.40;4.37;;;15.10;99.90;;;;;;5445734;26;20242;-57
2024/04/09 05:45:13;;;;;;;11.70;4.57;;;15.10;99.90;;;;;;5463604;26;20675;-60
2024/04/09 05:47:42;;;;;;;9.03;4.47;;;15.20;99.90;;;;;;5439235;26;20272;-58
2024/04/09 05:50:08;;;;;;;12.93;4.77;;;15.20;99.90;;;;;;5442002;26;20383;-59
2024/04/09 05:52:36;;;;;;;12.43;5.33;;;15.30;99.90;;;;;;5410926;26;20748;-56
2024/04/09 05:55:03;;;;;;;12.40;5.00;;;15.30;99.90;;;;;;5430994;26;20235;-59
2024/04/09 05:57:36;;;;;;;11.40;4.47;;;15.40;99.90;;;;;;5433515;26;20307;-57
2024/04/09 06:00:09;;;;;;;8.20;4.30;;;15.40;99.90;;;;;;5434638;26;20243;-60
2024/04/09 06:02:40;;;;;;;7.63;4.10;;;15.50;99.90;;;;;;5408622;26;20289;-59
2024/04/09 06:05:06;;;;;;;8.67;4.43;;;15.50;99.90;;;;;;5435822;26;20232;-60
2024/04/09 06:07:35;;;;;;;11.37;4.33;;;15.50;99.90;;;;;;5407666;26;20398;-55
2024/04/09 06:10:03;;;;;;;8.17;4.07;;;15.60;99.90;;;;;;5436213;26;20294;-58
2024/04/09 06:12:32;;;;;;;10.37;5.07;;;15.70;99.90;;;;;;5439799;26;20283;-59
2024/04/09 06:14:58;;;;;;;12.50;4.70;;;15.70;99.90;;;;;;5438261;26;20236;-58
2024/04/09 06:17:29;;;;;;;7.07;4.27;;;15.70;99.90;;;;;;5421600;26;21099;-59
2024/04/09 06:19:57;;;;;;;8.00;4.37;;;15.70;99.90;;;;;;5439906;26;20733;-58
2024/04/09 06:22:26;;;;;;;10.17;3.87;;;15.80;99.90;;;;;;5450843;26;20222;-58
2024/04/09 06:24:53;;;;;;;7.77;4.93;;;15.80;99.90;;;;;;5409408;26;20339;-58
2024/04/09 06:27:21;;;;;;;12.00;4.87;;;15.90;99.90;;;;;;5444611;26;20268;-59
2024/04/09 06:29:47;;;;;;;8.17;4.30;;;16.00;99.90;;;;;;5442157;26;20238;-58
2024/04/09 06:32:16;;;;;;;9.80;4.27;;;16.00;99.90;;;;;;5428131;26;20286;-55
2024/04/09 06:34:44;;;;;;;16.80;4.23;;;16.00;99.90;;;;;;5437691;26;20592;-58
2024/04/09 06:37:13;;;;;;;12.47;4.77;;;16.00;99.90;;;;;;5452929;26;20303;-60
2024/04/09 06:39:39;;;;;;;12.27;4.57;;;16.00;99.90;;;;;;5415004;26;20293;-59
2024/04/09 06:42:07;;;;;;;8.00;4.47;;;16.00;99.90;;;;;;5433375;26;20722;-56
2024/04/09 06:44:34;;;;;;;10.93;4.03;;;16.10;99.90;;;;;;5416857;26;20238;-56
2024/04/09 06:47:02;;;;;;;12.10;4.70;;;16.20;99.90;;;;;;5437543;26;20348;-53
2024/04/09 06:49:28;;;;;;;12.00;4.73;;;16.20;99.90;;;;;;5425451;26;20278;-57
2024/04/09 06:51:59;;;;;;;6.53;4.23;;;16.20;99.90;;;;;;5436664;26;20231;-55
2024/04/09 06:54:25;;;;;;;11.90;5.00;;;16.20;99.90;;;;;;5417941;26;20394;-58
2024/04/09 06:56:54;;;;;;;10.23;4.53;;;16.20;99.90;;;;;;5438495;26;20238;-58
2024/04/09 06:59:21;;;;;;;12.53;4.83;;;16.20;99.90;;;;;;5419286;26;20329;-54
2024/04/09 07:01:51;;;;;;;9.20;4.27;;;16.20;99.90;;;;;;5438970;26;20277;-59
2024/04/09 07:04:17;;;;;;;11.80;4.67;;;16.30;99.90;;;;;;5430195;26;20244;-59
2024/04/09 07:06:46;;;;;;;11.63;4.43;;;16.30;99.90;;;;;;5452262;26;20284;-58
2024/04/09 07:09:16;;;;;;;13.63;4.80;;;16.40;99.90;;;;;;5438084;26;20240;-60
2024/04/09 07:11:46;;;;;;;8.43;4.80;;;16.40;99.90;;;;;;5406906;26;20307;-58
2024/04/09 07:14:13;;;;;;;9.13;3.87;;;16.40;99.90;;;;;;5432320;26;20979;-58
2024/04/09 07:16:42;;;;;;;7.77;3.97;;;16.40;99.90;;;;;;5453486;26;20832;-59
2024/04/09 07:19:09;;;;;;;13.47;4.93;;;16.50;99.90;;;;;;5436581;26;20246;-60
2024/04/09 07:21:38;;;;;;;8.27;4.23;;;16.50;99.90;;;;;;5432262;26;20306;-61
2024/04/09 07:24:05;;;;;;;11.97;4.23;;;16.60;99.90;;;;;;5435392;26;20282;-61
2024/04/09 07:26:36;;;;;;;8.77;4.30;;;16.70;99.90;;;;;;5400115;26;20356;-60
2024/04/09 07:29:02;;;;;;;9.07;3.83;;;16.70;99.90;;;;;;5439270;26;20273;-59
2024/04/09 07:31:31;;;;;;;8.37;3.97;;;16.80;99.90;;;;;;5448148;26;20864;-60
2024/04/09 07:33:57;;;;;;;12.83;4.40;;;16.80;99.90;;;;;;5444481;26;20577;-58
2024/04/09 07:36:25;;;;;;;9.43;3.87;;;16.80;99.90;;;;;;5440902;26;20248;-60
2024/04/09 07:38:52;;;;;;;10.33;3.63;;;16.90;99.90;;;;;;5445627;26;20285;-58
2024/04/09 07:41:22;;;;;;;12.60;4.00;;;17.00;99.90;;;;;;5395411;26;20242;-59
2024/04/09 07:43:51;;;;;;;12.10;5.07;;;17.00;99.90;;;;;;5431098;26;20228;-58
2024/04/09 07:46:20;;;;;;;7.03;3.83;;;17.10;99.90;;;;;;5445470;26;20285;-59
2024/04/09 07:48:46;;;;;;;14.93;5.17;;;17.10;99.90;;;;;;5449432;26;20732;-56
2024/04/09 07:51:14;;;;;;;8.67;3.60;;;17.10;99.90;;;;;;5441618;26;20243;-59
2024/04/09 07:53:41;;;;;;;12.90;4.17;;;17.10;99.90;;;;;;5435505;26;20278;-57
2024/04/09 07:56:12;;;;;;;13.13;3.80;;;17.20;99.90;;;;;;5433307;26;20440;-61
2024/04/09 07:58:38;;;;;;;11.13;3.90;;;17.10;99.90;;;;;;5416786;26;20325;-59
2024/04/09 08:01:09;;;;;;;11.47;4.27;;;17.10;99.90;;;;;;5440033;26;20283;-60
2024/04/09 08:03:35;;;;;;;15.33;4.47;;;17.10;99.90;;;;;;5442006;26;20235;-59
2024/04/09 08:06:04;;;;;;;9.13;3.43;;;17.10;99.90;;;;;;5434866;26;20244;-58
2024/04/09 08:08:30;;;;;;;11.70;3.93;;;17.20;99.90;;;;;;5417158;26;20235;-57
2024/04/09 08:10:58;;;;;;;11.60;4.17;;;17.20;99.90;;;;;;5445477;26;20879;-58
2024/04/09 08:13:25;;;;;;;12.40;3.90;;;17.30;99.90;;;;;;5418221;26;20293;-58
2024/04/09 08:15:54;;;;;;;9.60;3.90;;;17.20;99.90;;;;;;5432337;26;21022;-59
2024/04/09 08:18:24;;;;;;;9.23;4.67;;;17.20;99.90;;;;;;5443992;26;20251;-58
2024/04/09 08:20:52;;;;;;;9.77;3.23;;;17.30;99.90;;;;;;5437965;26;20235;-59
2024/04/09 08:23:18;;;;;;;13.07;3.93;;;17.30;99.90;;;;;;5444433;26;20270;-58
2024/04/09 08:25:49;;;;;;;15.60;3.83;;;17.30;99.90;;;;;;5437066;26;20977;-60
2024/04/09 08:28:18;;;;;;;15.90;3.87;;;17.30;99.90;;;;;;5412619;26;20646;-60
2024/04/09 08:30:47;;;;;;;10.50;3.93;;;17.20;99.90;;;;;;5439894;26;20230;-60
2024/04/09 08:33:13;;;;;;;6.93;2.97;;;17.30;99.90;;;;;;5445699;26;20244;-60
2024/04/09 08:35:47;;;;;;;7.67;3.60;;;17.20;99.90;;;;;;5424165;26;20234;-60
2024/04/09 08:38:14;;;;;;;9.53;3.13;;;17.20;99.90;;;;;;5442861;26;20235;-61
2024/04/09 08:40:43;;;;;;;7.67;3.20;;;17.20;99.90;;;;;;5432801;26;20235;-55
2024/04/09 08:43:09;;;;;;;9.23;2.77;;;17.20;99.90;;;;;;5414425;26;20274;-58
2024/04/09 08:45:39;;;;;;;8.33;3.50;;;17.20;99.90;;;;;;5434872;26;20231;-56
2024/04/09 08:48:07;;;;;;;6.77;3.07;;;17.30;99.90;;;;;;5441754;26;20246;-57
2024/04/09 08:50:35;;;;;;;10.80;3.20;;;17.30;99.90;;;;;;5435386;26;20582;-55
2024/04/09 08:53:05;;;;;;;5.70;3.10;;;17.40;99.90;;;;;;5427329;26;20274;-58
2024/04/09 08:55:34;;;;;;;7.60;3.47;;;17.50;99.90;;;;;;5425799;26;20589;-56
2024/04/09 08:58:01;;;;;;;9.40;3.50;;;17.60;99.90;;;;;;5450193;26;20450;-58
2024/04/09 09:00:29;;;;;;;8.67;2.50;;;17.70;99.90;;;;;;5401191;26;20255;-56
2024/04/09 09:02:55;;;;;;;4.90;2.60;;;17.70;99.90;;;;;;5430130;26;20304;-57
2024/04/09 09:05:24;;;;;;;4.53;2.40;;;17.60;99.90;;;;;;5416282;26;20265;-54
2024/04/09 09:07:58;;;;;;;8.80;2.53;;;17.60;99.90;;;;;;5438361;26;20467;-56
2024/04/09 09:10:29;;;;;;;6.97;2.47;;;17.60;99.90;;;;;;5433811;26;20705;-55
2024/04/09 09:12:58;;;;;;;5.93;2.53;;;17.70;99.90;;;;;;5450613;26;20287;-56
2024/04/09 09:15:27;;;;;;;6.63;2.80;;;17.70;99.90;;;;;;5412522;26;20239;-54
2024/04/09 09:17:53;;;;;;;6.43;2.27;;;17.80;99.90;;;;;;5421342;26;20282;-54
2024/04/09 09:20:22;;;;;;;5.37;2.13;;;17.80;99.90;;;;;;5437247;26;20242;-54
2024/04/09 09:22:48;;;;;;;6.43;2.20;;;17.90;99.90;;;;;;5449861;26;20570;-52
2024/04/09 09:25:18;;;;;;;4.97;1.90;;;18.00;99.90;;;;;;5439093;26;20345;-54
2024/04/09 09:27:48;;;;;;;5.20;2.20;;;18.10;99.90;;;;;;5442191;26;20364;-55
2024/04/09 09:30:17;;;;;;;7.70;2.87;;;18.20;99.90;;;;;;5445797;26;20645;-55
2024/04/09 09:32:46;;;;;;;5.23;2.23;;;18.20;99.90;;;;;;5379293;26;20239;-54
2024/04/09 09:35:18;;;;;;;6.57;2.80;;;18.30;99.90;;;;;;5446001;26;21551;-58
2024/04/09 09:37:46;;;;;;;4.27;2.40;;;18.30;99.90;;;;;;5438323;26;20265;-57
2024/04/09 09:40:15;;;;;;;6.00;2.60;;;18.30;99.90;;;;;;5441536;25;20425;-56
2024/04/09 09:42:46;;;;;;;4.77;2.50;;;18.40;99.90;;;;;;5450968;26;20287;-56
2024/04/09 09:45:16;;;;;;;4.63;2.20;;;18.40;99.90;;;;;;5439748;26;20240;-56
2024/04/09 09:47:45;;;;;;;5.93;2.63;;;18.30;99.90;;;;;;5390784;26;20739;-56
2024/04/09 09:50:14;;;;;;;6.07;2.77;;;18.30;99.90;;;;;;5451844;26;21008;-56
2024/04/09 09:52:41;;;;;;;8.23;2.63;;;18.40;99.90;;;;;;5439089;26;20618;-57
2024/04/09 09:55:11;;;;;;;3.87;2.20;;;18.40;99.90;;;;;;5441825;26;20330;-50
2024/04/09 09:57:41;;;;;;;4.30;2.03;;;18.30;99.90;;;;;;5444410;26;20356;-57
2024/04/09 10:00:16;;;;;;;6.13;2.50;;;18.40;99.90;;;;;;5439290;26;20231;-57
2024/04/09 10:02:44;;;;;;;4.50;2.10;;;18.30;99.90;;;;;;5408104;26;20318;-56
2024/04/09 10:05:14;;;;;;;7.10;2.53;;;18.30;99.90;;;;;;5433927;26;20228;-59
2024/04/09 10:07:41;;;;;;;5.70;2.53;;;18.20;99.90;;;;;;5438530;26;20290;-55
2024/04/09 10:10:09;;;;;;;6.80;2.70;;;18.20;99.90;;;;;;5429301;26;20228;-57
2024/04/09 10:12:35;;;;;;;5.33;2.83;;;18.00;99.90;;;;;;5422413;26;20227;-58
2024/04/09 10:15:07;;;;;;;4.30;2.50;;;17.80;99.90;;;;;;5427572;26;21035;-55
2024/04/09 10:17:55;;;;;;;5.27;2.63;;;17.80;99.90;;;;;;5404021;26;20286;-57
2024/04/09 10:20:26;;;;;;;5.90;2.97;;;17.70;99.90;;;;;;5435534;26;20346;-59
2024/04/09 10:22:53;;;;;;;7.43;3.60;;;17.60;99.90;;;;;;5432559;26;20231;-60
2024/04/09 10:25:22;;;;;;;3.50;3.20;;;17.50;99.90;;;;;;5413135;26;20278;-61
2024/04/09 10:27:59;;;;;;;4.77;3.13;;;17.50;99.90;;;;;;5420657;26;21103;-57
2024/04/09 10:30:30;;;;;;;5.23;3.60;;;17.60;99.90;;;;;;5431656;26;20251;-51
2024/04/09 10:33:00;;;;;;;6.67;3.50;;;17.50;99.90;;;;;;5415515;26;20343;-53
2024/04/09 10:35:29;;;;;;;5.53;3.63;;;17.50;99.90;;;;;;5430879;26;20252;-54
2024/04/09 10:37:57;;;;;;;5.67;3.93;;;17.40;99.90;;;;;;5454830;26;20230;-55
2024/04/09 10:40:26;;;;;;;5.53;3.60;;;17.30;99.90;;;;;;5404796;26;20251;-56
2024/04/09 10:42:52;;;;;;;6.17;4.47;;;17.30;99.90;;;;;;5439345;26;20277;-55
2024/04/09 10:45:21;;;;;;;5.77;3.77;;;17.30;99.90;;;;;;5446723;26;20742;-58
2024/04/09 10:47:47;;;;;;;5.87;3.90;;;17.20;99.90;;;;;;5393590;26;20327;-53
2024/04/09 10:50:20;;;;;;;4.67;3.93;;;17.10;99.90;;;;;;5433303;26;20282;-59
2024/04/09 10:52:46;;;;;;;4.63;3.63;;;17.10;99.90;;;;;;5447321;26;20765;-58
2024/04/09 10:55:15;;;;;;;4.10;3.70;;;16.90;99.90;;;;;;5426405;26;20239;-60
2024/04/09 10:57:45;;;;;;;4.57;3.87;;;16.90;99.90;;;;;;5428465;26;20235;-58
2024/04/09 11:00:12;;;;;;;3.73;3.43;;;16.90;99.90;;;;;;5444922;26;20277;-61
2024/04/09 11:02:42;;;;;;;10.13;4.70;;;16.90;99.90;;;;;;5438649;26;20285;-57
2024/04/09 11:05:09;;;;;;;4.70;4.20;;;16.80;99.90;;;;;;5394863;26;20251;-60
2024/04/09 11:07:42;;;;;;;5.27;4.77;;;16.80;99.90;;;;;;5429542;26;20345;-57
2024/04/09 11:10:11;;;;;;;5.63;4.57;;;16.80;99.90;;;;;;5431872;26;20282;-58
2024/04/09 11:12:46;;;;;;;5.90;4.27;;;16.90;99.90;;;;;;5427258;26;20239;-53
2024/04/09 11:15:13;;;;;;;6.77;4.20;;;16.90;99.90;;;;;;5456338;26;20239;-57
2024/04/09 11:17:42;;;;;;;5.90;4.80;;;16.90;99.90;;;;;;5456357;26;20292;-54
2024/04/09 11:20:10;;;;;;;6.43;4.43;;;17.00;99.90;;;;;;5401089;26;20298;-59
2024/04/09 11:22:45;;;;;;;8.53;4.93;;;17.00;99.90;;;;;;5416560;26;20908;-60
2024/04/09 11:25:11;;;;;;;5.30;4.37;;;17.00;99.90;;;;;;5449010;26;20266;-58
2024/04/09 11:27:41;;;;;;;6.00;4.60;;;17.00;99.90;;;;;;5446413;26;20234;-50
2024/04/09 11:30:08;;;;;;;6.30;5.10;;;16.90;99.90;;;;;;5436495;26;20286;-57
2024/04/09 11:32:36;;;;;;;6.73;4.20;;;16.90;99.90;;;;;;5452466;26;20228;-53
2024/04/09 11:35:02;;;;;;;6.20;4.87;;;16.90;99.90;;;;;;5404328;26;20242;-58
2024/04/09 11:37:31;;;;;;;7.80;4.83;;;16.80;99.90;;;;;;5412619;26;20334;-57
2024/04/09 11:40:01;;;;;;;6.53;4.53;;;16.80;99.90;;;;;;5452310;26;20282;-57
2024/04/09 11:42:29;;;;;;;5.23;4.77;;;16.80;99.90;;;;;;5430722;26;20231;-54
2024/04/09 11:44:59;;;;;;;5.40;4.90;;;16.70;99.90;;;;;;5437300;26;22074;-52
2024/04/09 11:47:28;;;;;;;5.90;5.30;;;16.70;99.90;;;;;;5447601;26;20282;-56
2024/04/09 11:49:54;;;;;;;6.20;4.97;;;16.70;99.90;;;;;;5432111;26;20335;-55
2024/04/09 11:52:22;;;;;;;5.90;5.23;;;16.50;99.90;;;;;;5390902;26;20298;-57
2024/04/09 11:54:48;;;;;;;5.97;5.37;;;16.50;99.90;;;;;;5435970;26;20293;-58
2024/04/09 11:57:19;;;;;;;7.03;6.00;;;16.30;99.90;;;;;;5433547;26;20583;-59
2024/04/09 11:59:47;;;;;;;9.73;5.87;;;16.30;99.90;;;;;;5436964;26;20287;-55
2024/04/09 12:02:15;;;;;;;7.27;6.03;;;16.30;99.90;;;;;;5439580;26;20251;-58
2024/04/09 12:04:41;;;;;;;9.27;5.60;;;16.20;99.90;;;;;;5422280;26;20235;-56
2024/04/09 12:07:10;;;;;;;5.57;5.07;;;16.20;99.90;;;;;;5394407;26;20281;-54
2024/04/09 12:09:36;;;;;;;6.83;4.83;;;16.20;99.90;;;;;;5439471;26;20321;-57
2024/04/09 12:12:08;;;;;;;5.50;4.83;;;16.30;99.90;;;;;;5446619;26;20540;-50
2024/04/09 12:14:37;;;;;;;6.40;4.97;;;16.10;99.90;;;;;;5434823;26;20294;-58
2024/04/09 12:17:06;;;;;;;6.27;4.93;;;16.10;99.90;;;;;;5439824;26;20272;-54
2024/04/09 12:19:32;;;;;;;5.67;4.60;;;16.10;99.90;;;;;;5438830;26;20242;-54
2024/04/09 12:22:01;;;;;;;5.23;4.73;;;16.10;99.90;;;;;;5408719;26;20343;-50
2024/04/09 12:24:27;;;;;;;5.20;4.60;;;16.10;99.90;;;;;;5427965;26;20243;-58
2024/04/09 12:26:57;;;;;;;9.17;4.37;;;16.10;99.90;;;;;;5438502;26;22426;-55
2024/04/09 12:29:23;;;;;;;6.17;5.10;;;16.10;99.90;;;;;;5457205;26;20390;-58
2024/04/09 12:31:54;;;;;;;4.37;3.97;;;16.00;99.90;;;;;;5420785;25;20274;-53
2024/04/09 12:34:22;;;;;;;5.90;4.17;;;15.90;99.90;;;;;;5451252;26;20291;-54
2024/04/09 12:36:51;;;;;;;3.60;2.57;;;15.80;99.90;;;;;;5414872;26;20242;-55
2024/04/09 12:39:16;;;;;;;3.57;2.33;;;15.70;99.90;;;;;;5433835;26;20669;-53
2024/04/09 12:41:45;;;;;;;4.37;2.80;;;15.60;99.90;;;;;;5430875;26;20283;-55
2024/04/09 12:44:11;;;;;;;6.73;2.93;;;15.60;99.90;;;;;;5430965;26;20599;-57
2024/04/09 12:46:40;;;;;;;2.77;2.30;;;15.60;99.90;;;;;;5416070;26;20234;-55
2024/04/09 12:49:09;;;;;;;3.73;2.00;;;15.40;99.90;;;;;;5436560;26;20333;-57